createdAt,value
2023-02-08T00:00:19.108Z,81.43
2023-02-08T00:01:19.117Z,81.01
2023-02-08T00:02:19.117Z,81.12
2023-02-08T00:03:19.056Z,81.22
2023-02-08T00:04:19.038Z,81.22
2023-02-08T00:05:19.032Z,81.22
2023-02-08T00:06:19.017Z,81.12
2023-02-08T00:07:19.058Z,81.12
2023-02-08T00:08:18.995Z,81.74
2023-02-08T00:09:18.984Z,81.85
2023-02-08T00:10:18.967Z,81.64
2023-02-08T00:11:18.949Z,81.74
2023-02-08T00:12:18.954Z,81.74
2023-02-08T00:13:18.922Z,81.74
2023-02-08T00:14:18.919Z,82.06
2023-02-08T00:15:18.914Z,82.70
2023-02-08T00:16:19.041Z,82.91
2023-02-08T00:17:18.924Z,82.17
2023-02-08T00:18:18.872Z,81.99
2023-02-08T00:19:18.848Z,81.85
2023-02-08T00:20:18.842Z,82.21
2023-02-08T00:21:18.834Z,82.48
2023-02-08T00:22:18.828Z,82.73
2023-02-08T00:23:18.799Z,82.95
2023-02-08T00:24:18.802Z,82.53
2023-02-08T00:25:18.770Z,81.99
2023-02-08T00:26:18.764Z,82.10
2023-02-08T00:27:18.756Z,82.10
2023-02-08T00:28:18.804Z,83.15
2023-02-08T00:29:18.726Z,82.95
2023-02-08T00:30:18.728Z,82.10
2023-02-08T00:31:18.863Z,82.56
2023-02-08T00:32:18.680Z,83.15
2023-02-08T00:33:18.704Z,82.73
2023-02-08T00:34:18.671Z,81.78
2023-02-08T00:35:18.637Z,82.21
2023-02-08T00:36:18.625Z,82.42
2023-02-08T00:37:18.613Z,82.10
2023-02-08T00:38:18.605Z,82.35
2023-02-08T00:39:18.592Z,82.14
2023-02-08T00:40:18.583Z,82.45
2023-02-08T00:41:18.560Z,82.45
2023-02-08T00:42:18.549Z,83.09
2023-02-08T00:43:18.542Z,82.45
2023-02-08T00:44:18.530Z,81.93
2023-02-08T00:45:18.506Z,82.35
2023-02-08T00:46:18.578Z,82.67
2023-02-08T00:47:18.484Z,82.88
2023-02-08T00:48:18.476Z,82.77
2023-02-08T00:49:18.488Z,82.56
2023-02-08T00:50:18.457Z,82.35
2023-02-08T00:51:18.459Z,82.45
2023-02-08T00:52:18.422Z,82.56
2023-02-08T00:53:18.408Z,82.45
2023-02-08T00:54:18.391Z,82.67
2023-02-08T00:55:18.387Z,82.14
2023-02-08T00:56:18.366Z,82.67
2023-02-08T00:57:18.353Z,82.56
2023-02-08T00:58:18.346Z,82.35
2023-02-08T00:59:18.335Z,82.24
2023-02-08T01:00:18.331Z,82.24
2023-02-08T01:01:18.375Z,81.40
2023-02-08T01:02:18.366Z,80.24
2023-02-08T01:03:18.285Z,80.34
2023-02-08T01:04:18.274Z,80.24
2023-02-08T01:05:18.275Z,80.44
2023-02-08T01:06:18.263Z,80.98
2023-02-08T01:07:18.239Z,80.55
2023-02-08T01:08:18.217Z,78.54
2023-02-08T01:09:18.209Z,78.44
2023-02-08T01:10:18.187Z,78.97
2023-02-08T01:11:18.172Z,79.92
2023-02-08T01:12:18.163Z,79.99
2023-02-08T01:13:18.152Z,79.57
2023-02-08T01:14:18.141Z,79.49
2023-02-08T01:15:18.138Z,79.49
2023-02-08T01:16:18.142Z,79.60
2023-02-08T01:17:18.109Z,79.71
2023-02-08T01:18:18.098Z,79.60
2023-02-08T01:19:18.070Z,79.60
2023-02-08T01:20:18.058Z,79.92
2023-02-08T01:21:18.100Z,79.92
2023-02-08T01:22:18.042Z,80.16
2023-02-08T01:23:18.027Z,80.59
2023-02-08T01:24:18.009Z,81.43
2023-02-08T01:25:18.002Z,81.75
2023-02-08T01:26:17.989Z,81.54
2023-02-08T01:27:17.969Z,81.65
2023-02-08T01:28:18.009Z,81.12
2023-02-08T01:29:17.941Z,80.69
2023-02-08T01:30:17.937Z,80.59
2023-02-08T01:31:17.959Z,80.69
2023-02-08T01:32:17.913Z,80.91
2023-02-08T01:33:17.906Z,80.48
2023-02-08T01:34:17.886Z,80.80
2023-02-08T01:35:17.866Z,80.62
2023-02-08T01:36:17.858Z,80.41
2023-02-08T01:37:17.866Z,80.62
2023-02-08T01:38:17.828Z,80.52
2023-02-08T01:39:17.833Z,80.52
2023-02-08T01:40:17.815Z,80.30
2023-02-08T01:41:17.791Z,80.30
2023-02-08T01:42:17.815Z,80.62
2023-02-08T01:43:17.768Z,80.62
2023-02-08T01:44:17.796Z,81.26
2023-02-08T01:45:17.746Z,80.77
2023-02-08T01:46:17.733Z,81.30
2023-02-08T01:47:17.748Z,81.37
2023-02-08T01:48:17.729Z,79.78
2023-02-08T01:49:17.720Z,80.52
2023-02-08T01:50:17.681Z,80.27
2023-02-08T01:51:17.669Z,80.20
2023-02-08T01:52:17.674Z,81.12
2023-02-08T01:53:17.665Z,81.75
2023-02-08T01:54:17.627Z,80.27
2023-02-08T01:55:17.618Z,79.21
2023-02-08T01:56:17.606Z,79.96
2023-02-08T01:57:17.591Z,79.85
2023-02-08T01:58:17.572Z,79.57
2023-02-08T01:59:17.567Z,79.67
2023-02-08T02:00:17.595Z,79.67
2023-02-08T02:01:17.597Z,80.73
2023-02-08T02:02:17.543Z,81.26
2023-02-08T02:03:17.513Z,81.15
2023-02-08T02:04:17.600Z,80.62
2023-02-08T02:05:17.512Z,80.52
2023-02-08T02:06:17.469Z,80.34
2023-02-08T02:07:17.485Z,79.60
2023-02-08T02:08:17.440Z,79.39
2023-02-08T02:09:17.459Z,79.71
2023-02-08T02:10:17.420Z,80.24
2023-02-08T02:11:17.413Z,79.92
2023-02-08T02:12:17.391Z,80.45
2023-02-08T02:13:17.385Z,80.13
2023-02-08T02:14:17.367Z,79.82
2023-02-08T02:15:17.361Z,79.85
2023-02-08T02:16:17.386Z,79.50
2023-02-08T02:17:17.340Z,80.06
2023-02-08T02:18:17.322Z,79.85
2023-02-08T02:19:17.318Z,79.11
2023-02-08T02:20:17.296Z,79.11
2023-02-08T02:21:17.296Z,78.75
2023-02-08T02:22:17.283Z,77.73
2023-02-08T02:23:17.266Z,78.12
2023-02-08T02:24:17.261Z,78.44
2023-02-08T02:25:17.257Z,78.75
2023-02-08T02:26:17.219Z,78.97
2023-02-08T02:27:17.199Z,77.70
2023-02-08T02:28:17.228Z,77.06
2023-02-08T02:29:17.186Z,76.50
2023-02-08T02:30:17.173Z,76.71
2023-02-08T02:31:17.225Z,76.81
2023-02-08T02:32:17.135Z,76.29
2023-02-08T02:33:17.132Z,76.39
2023-02-08T02:34:17.114Z,76.15
2023-02-08T02:35:17.106Z,76.67
2023-02-08T02:36:17.084Z,76.67
2023-02-08T02:37:17.072Z,77.31
2023-02-08T02:38:17.058Z,77.24
2023-02-08T02:39:17.049Z,76.57
2023-02-08T02:40:17.031Z,76.35
2023-02-08T02:41:17.053Z,75.62
2023-02-08T02:42:17.006Z,76.15
2023-02-08T02:43:17.003Z,76.71
2023-02-08T02:44:16.979Z,74.91
2023-02-08T02:45:16.967Z,73.96
2023-02-08T02:46:16.963Z,72.76
2023-02-08T02:47:16.942Z,73.19
2023-02-08T02:48:16.938Z,72.97
2023-02-08T02:49:16.932Z,74.24
2023-02-08T02:50:16.910Z,75.40
2023-02-08T02:51:16.902Z,75.09
2023-02-08T02:52:16.889Z,74.24
2023-02-08T02:53:16.869Z,74.35
2023-02-08T02:54:16.855Z,74.46
2023-02-08T02:55:16.845Z,73.39
2023-02-08T02:56:16.835Z,74.24
2023-02-08T02:57:16.848Z,75.72
2023-02-08T02:58:16.805Z,76.25
2023-02-08T02:59:16.792Z,74.98
2023-02-08T03:00:16.788Z,74.88
2023-02-08T03:01:16.824Z,75.20
2023-02-08T03:02:16.753Z,74.66
2023-02-08T03:03:16.750Z,74.66
2023-02-08T03:04:16.861Z,75.30
2023-02-08T03:05:16.717Z,75.62
2023-02-08T03:06:16.715Z,75.51
2023-02-08T03:07:16.708Z,75.86
2023-02-08T03:08:16.708Z,75.30
2023-02-08T03:09:16.666Z,75.65
2023-02-08T03:10:16.662Z,76.04
2023-02-08T03:11:16.661Z,77.10
2023-02-08T03:12:16.634Z,76.18
2023-02-08T03:13:16.649Z,76.15
2023-02-08T03:14:16.600Z,76.15
2023-02-08T03:15:16.596Z,76.15
2023-02-08T03:16:16.606Z,75.97
2023-02-08T03:17:16.582Z,75.86
2023-02-08T03:18:16.548Z,74.70
2023-02-08T03:19:16.546Z,74.46
2023-02-08T03:20:16.523Z,75.65
2023-02-08T03:21:16.520Z,76.25
2023-02-08T03:22:16.506Z,76.57
2023-02-08T03:23:16.483Z,75.20
2023-02-08T03:24:16.474Z,75.30
2023-02-08T03:25:16.477Z,75.93
2023-02-08T03:26:16.448Z,75.40
2023-02-08T03:27:16.445Z,75.62
2023-02-08T03:28:16.447Z,75.93
2023-02-08T03:29:16.435Z,75.40
2023-02-08T03:30:16.397Z,76.25
2023-02-08T03:31:16.552Z,76.18
2023-02-08T03:32:16.387Z,76.29
2023-02-08T03:33:16.369Z,76.29
2023-02-08T03:34:16.349Z,76.07
2023-02-08T03:35:16.344Z,75.97
2023-02-08T03:36:16.321Z,76.07
2023-02-08T03:37:16.313Z,76.04
2023-02-08T03:38:16.301Z,76.25
2023-02-08T03:39:16.288Z,76.78
2023-02-08T03:40:16.274Z,76.99
2023-02-08T03:41:16.253Z,76.78
2023-02-08T03:42:16.247Z,77.10
2023-02-08T03:43:16.247Z,77.52
2023-02-08T03:44:16.234Z,76.99
2023-02-08T03:45:16.230Z,76.57
2023-02-08T03:46:16.249Z,75.40
2023-02-08T03:47:16.184Z,76.25
2023-02-08T03:48:16.168Z,76.99
2023-02-08T03:49:16.160Z,77.20
2023-02-08T03:50:16.146Z,77.31
2023-02-08T03:51:16.138Z,77.31
2023-02-08T03:52:16.114Z,76.99
2023-02-08T03:53:16.102Z,76.46
2023-02-08T03:54:16.088Z,77.31
2023-02-08T03:55:16.080Z,78.05
2023-02-08T03:56:16.068Z,78.16
2023-02-08T03:57:16.056Z,78.37
2023-02-08T03:58:16.042Z,77.94
2023-02-08T03:59:16.027Z,77.98
2023-02-08T04:00:16.018Z,77.66
2023-02-08T04:01:16.057Z,77.98
2023-02-08T04:02:16.003Z,77.91
2023-02-08T04:03:15.976Z,78.19
2023-02-08T04:04:15.968Z,78.55
2023-02-08T04:05:15.942Z,78.33
2023-02-08T04:06:15.944Z,78.12
2023-02-08T04:07:15.915Z,78.65
2023-02-08T04:08:15.904Z,78.97
2023-02-08T04:09:15.892Z,79.71
2023-02-08T04:10:15.894Z,80.13
2023-02-08T04:11:15.865Z,79.60
2023-02-08T04:12:15.860Z,79.07
2023-02-08T04:13:15.845Z,78.97
2023-02-08T04:14:15.825Z,79.50
2023-02-08T04:15:15.835Z,79.43
2023-02-08T04:16:15.806Z,79.92
2023-02-08T04:17:15.877Z,80.13
2023-02-08T04:18:15.787Z,79.28
2023-02-08T04:19:15.767Z,79.50
2023-02-08T04:20:15.748Z,80.02
2023-02-08T04:21:15.740Z,80.24
2023-02-08T04:22:15.720Z,80.55
2023-02-08T04:23:15.709Z,80.55
2023-02-08T04:24:15.697Z,79.92
2023-02-08T04:25:15.691Z,79.60
2023-02-08T04:26:15.676Z,79.71
2023-02-08T04:27:15.663Z,79.28
2023-02-08T04:28:15.676Z,79.07
2023-02-08T04:29:15.639Z,79.18
2023-02-08T04:30:15.627Z,79.39
2023-02-08T04:31:15.752Z,79.39
2023-02-08T04:32:15.607Z,79.39
2023-02-08T04:33:15.616Z,79.28
2023-02-08T04:34:15.576Z,79.60
2023-02-08T04:35:15.580Z,79.50
2023-02-08T04:36:15.553Z,79.18
2023-02-08T04:37:15.558Z,78.44
2023-02-08T04:38:15.526Z,78.30
2023-02-08T04:39:15.515Z,78.75
2023-02-08T04:40:15.503Z,79.07
2023-02-08T04:41:15.501Z,79.28
2023-02-08T04:42:15.476Z,79.99
2023-02-08T04:43:15.457Z,79.78
2023-02-08T04:44:15.448Z,79.28
2023-02-08T04:45:15.443Z,79.14
2023-02-08T04:46:15.445Z,79.67
2023-02-08T04:47:15.411Z,79.25
2023-02-08T04:48:15.397Z,79.03
2023-02-08T04:49:15.405Z,78.72
2023-02-08T04:50:15.371Z,78.83
2023-02-08T04:51:15.361Z,78.75
2023-02-08T04:52:15.349Z,79.28
2023-02-08T04:53:15.333Z,79.57
2023-02-08T04:54:15.325Z,79.39
2023-02-08T04:55:15.313Z,79.18
2023-02-08T04:56:15.306Z,79.50
2023-02-08T04:57:15.291Z,79.60
2023-02-08T04:58:15.267Z,79.71
2023-02-08T04:59:15.261Z,79.60
2023-02-08T05:00:15.253Z,79.50
2023-02-08T05:01:15.259Z,79.39
2023-02-08T05:02:15.213Z,79.18
2023-02-08T05:03:15.205Z,79.96
2023-02-08T05:04:15.195Z,79.60
2023-02-08T05:05:15.282Z,79.71
2023-02-08T05:06:15.170Z,79.96
2023-02-08T05:07:15.155Z,80.17
2023-02-08T05:08:15.146Z,80.24
2023-02-08T05:09:15.132Z,80.49
2023-02-08T05:10:15.107Z,80.59
2023-02-08T05:11:15.106Z,79.74
2023-02-08T05:12:15.092Z,79.43
2023-02-08T05:13:15.077Z,79.96
2023-02-08T05:14:15.055Z,80.49
2023-02-08T05:15:15.045Z,80.69
2023-02-08T05:16:15.071Z,80.27
2023-02-08T05:17:15.044Z,80.17
2023-02-08T05:18:15.018Z,79.85
2023-02-08T05:19:15.006Z,80.59
2023-02-08T05:20:14.980Z,81.01
2023-02-08T05:21:15.010Z,80.59
2023-02-08T05:22:14.961Z,80.45
2023-02-08T05:23:14.946Z,80.02
2023-02-08T05:24:14.927Z,79.82
2023-02-08T05:25:14.927Z,79.82
2023-02-08T05:26:14.919Z,79.82
2023-02-08T05:27:14.889Z,79.53
2023-02-08T05:28:14.911Z,79.11
2023-02-08T05:29:14.869Z,79.21
2023-02-08T05:30:14.885Z,79.18
2023-02-08T05:31:14.988Z,79.82
2023-02-08T05:32:14.837Z,79.50
2023-02-08T05:33:14.821Z,78.97
2023-02-08T05:34:14.807Z,79.60
2023-02-08T05:35:14.785Z,78.75
2023-02-08T05:36:14.786Z,78.65
2023-02-08T05:37:14.793Z,78.55
2023-02-08T05:38:14.756Z,79.03
2023-02-08T05:39:14.739Z,78.19
2023-02-08T05:40:14.735Z,78.40
2023-02-08T05:41:14.708Z,77.87
2023-02-08T05:42:14.695Z,77.56
2023-02-08T05:43:14.694Z,77.98
2023-02-08T05:44:14.674Z,78.61
2023-02-08T05:45:14.656Z,78.19
2023-02-08T05:46:14.852Z,77.87
2023-02-08T05:47:14.639Z,77.87
2023-02-08T05:48:14.623Z,77.45
2023-02-08T05:49:14.615Z,77.24
2023-02-08T05:50:14.598Z,77.42
2023-02-08T05:51:14.585Z,76.67
2023-02-08T05:52:14.573Z,77.03
2023-02-08T05:53:14.587Z,76.99
2023-02-08T05:54:14.547Z,77.31
2023-02-08T05:55:14.546Z,77.42
2023-02-08T05:56:14.513Z,77.31
2023-02-08T05:57:14.511Z,77.10
2023-02-08T05:58:14.496Z,77.10
2023-02-08T05:59:14.485Z,77.31
2023-02-08T06:00:14.473Z,76.78
2023-02-08T06:01:14.460Z,76.25
2023-02-08T06:02:14.453Z,76.35
2023-02-08T06:03:14.456Z,77.10
2023-02-08T06:04:14.463Z,77.31
2023-02-08T06:05:14.416Z,77.52
2023-02-08T06:06:14.394Z,77.42
2023-02-08T06:07:14.373Z,77.52
2023-02-08T06:08:14.368Z,77.10
2023-02-08T06:09:14.370Z,77.42
2023-02-08T06:10:14.346Z,77.31
2023-02-08T06:11:14.338Z,77.10
2023-02-08T06:12:14.329Z,77.20
2023-02-08T06:13:14.302Z,77.42
2023-02-08T06:14:14.281Z,78.05
2023-02-08T06:15:14.272Z,78.47
2023-02-08T06:16:14.296Z,78.79
2023-02-08T06:17:14.265Z,79.00
2023-02-08T06:18:14.234Z,77.31
2023-02-08T06:19:14.233Z,76.67
2023-02-08T06:20:14.218Z,76.67
2023-02-08T06:21:14.194Z,76.57
2023-02-08T06:22:14.188Z,77.10
2023-02-08T06:23:14.178Z,77.20
2023-02-08T06:24:14.160Z,77.42
2023-02-08T06:25:14.181Z,77.31
2023-02-08T06:26:14.133Z,76.89
2023-02-08T06:27:14.126Z,77.10
2023-02-08T06:28:14.192Z,77.10
2023-02-08T06:29:14.088Z,77.73
2023-02-08T06:30:14.082Z,78.16
2023-02-08T06:31:14.141Z,78.47
2023-02-08T06:32:14.144Z,78.47
2023-02-08T06:33:15.815Z,78.69
2023-02-08T06:34:14.036Z,78.58
2023-02-08T06:35:14.018Z,78.69
2023-02-08T06:36:14.012Z,78.05
2023-02-08T06:37:13.989Z,77.52
2023-02-08T06:38:13.986Z,78.16
2023-02-08T06:39:13.974Z,78.26
2023-02-08T06:40:13.965Z,78.47
2023-02-08T06:41:13.982Z,78.69
2023-02-08T06:42:13.936Z,78.89
2023-02-08T06:43:13.917Z,79.43
2023-02-08T06:44:13.897Z,78.16
2023-02-08T06:45:13.901Z,78.26
2023-02-08T06:46:13.879Z,78.26
2023-02-08T06:47:13.862Z,77.84
2023-02-08T06:48:13.851Z,77.98
2023-02-08T06:49:13.835Z,78.79
2023-02-08T06:50:13.834Z,78.58
2023-02-08T06:51:13.808Z,78.37
2023-02-08T06:52:13.810Z,78.47
2023-02-08T06:53:13.793Z,78.69
2023-02-08T06:54:13.772Z,78.58
2023-02-08T06:55:13.774Z,79.11
2023-02-08T06:56:13.745Z,79.64
2023-02-08T06:57:13.776Z,79.74
2023-02-08T06:58:13.729Z,79.53
2023-02-08T06:59:13.709Z,78.89
2023-02-08T07:00:13.757Z,79.00
2023-02-08T07:01:13.762Z,79.00
2023-02-08T07:02:13.757Z,79.32
2023-02-08T07:03:13.663Z,79.32
2023-02-08T07:04:13.651Z,79.85
2023-02-08T07:05:13.637Z,80.38
2023-02-08T07:06:13.623Z,80.16
2023-02-08T07:07:13.614Z,80.27
2023-02-08T07:08:13.600Z,80.06
2023-02-08T07:09:13.580Z,79.21
2023-02-08T07:10:13.576Z,79.32
2023-02-08T07:11:13.580Z,79.74
2023-02-08T07:12:13.551Z,79.64
2023-02-08T07:13:13.558Z,80.16
2023-02-08T07:14:13.523Z,80.27
2023-02-08T07:15:13.523Z,79.96
2023-02-08T07:16:13.510Z,79.74
2023-02-08T07:17:13.479Z,80.16
2023-02-08T07:18:13.474Z,80.27
2023-02-08T07:19:13.459Z,80.38
2023-02-08T07:20:13.458Z,79.64
2023-02-08T07:21:13.441Z,79.64
2023-02-08T07:22:13.415Z,79.53
2023-02-08T07:23:13.417Z,79.11
2023-02-08T07:24:13.391Z,78.47
2023-02-08T07:25:13.393Z,78.37
2023-02-08T07:26:13.365Z,78.37
2023-02-08T07:27:13.358Z,78.79
2023-02-08T07:28:13.373Z,78.89
2023-02-08T07:29:13.357Z,78.58
2023-02-08T07:30:13.330Z,78.12
2023-02-08T07:31:13.311Z,78.44
2023-02-08T07:32:13.321Z,77.80
2023-02-08T07:33:13.279Z,78.23
2023-02-08T07:34:13.274Z,77.38
2023-02-08T07:35:13.250Z,77.28
2023-02-08T07:36:13.261Z,77.80
2023-02-08T07:37:13.246Z,77.70
2023-02-08T07:38:13.222Z,77.28
2023-02-08T07:39:13.208Z,77.17
2023-02-08T07:40:13.188Z,76.11
2023-02-08T07:41:13.194Z,74.42
2023-02-08T07:42:13.164Z,74.32
2023-02-08T07:43:13.172Z,75.45
2023-02-08T07:44:13.147Z,75.34
2023-02-08T07:45:13.148Z,74.70
2023-02-08T07:46:13.202Z,74.70
2023-02-08T07:47:13.101Z,74.91
2023-02-08T07:48:13.095Z,74.60
2023-02-08T07:49:13.086Z,73.01
2023-02-08T07:50:13.065Z,72.34
2023-02-08T07:51:13.051Z,72.66
2023-02-08T07:52:13.046Z,72.56
2023-02-08T07:53:13.025Z,72.42
2023-02-08T07:54:13.022Z,72.14
2023-02-08T07:55:13.003Z,70.78
2023-02-08T07:56:13.017Z,68.24
2023-02-08T07:57:12.981Z,63.63
2023-02-08T07:58:12.975Z,61.16
2023-02-08T07:59:12.954Z,60.39
2023-02-08T08:00:12.933Z,59.95
2023-02-08T08:01:21.877Z,59.16
2023-02-08T08:02:13.936Z,57.15
2023-02-08T08:03:12.918Z,56.07
2023-02-08T08:04:12.905Z,55.81
2023-02-08T08:05:12.887Z,54.57
2023-02-08T08:06:12.859Z,52.59
2023-02-08T08:07:12.853Z,50.85
2023-02-08T08:08:12.846Z,49.66
2023-02-08T08:09:12.826Z,49.54
2023-02-08T08:10:12.817Z,48.99
2023-02-08T08:11:12.797Z,47.00
2023-02-08T08:12:12.803Z,47.63
2023-02-08T08:13:12.773Z,48.37
2023-02-08T08:14:12.764Z,48.99
2023-02-08T08:15:12.745Z,45.76
2023-02-08T08:16:12.792Z,44.89
2023-02-08T08:17:12.755Z,45.67
2023-02-08T08:18:12.716Z,44.70
2023-02-08T08:19:12.703Z,44.14
2023-02-08T08:20:12.694Z,42.69
2023-02-08T08:21:12.687Z,40.94
2023-02-08T08:22:12.649Z,41.78
2023-02-08T08:23:12.643Z,42.65
2023-02-08T08:24:12.642Z,43.18
2023-02-08T08:25:12.627Z,43.85
2023-02-08T08:26:12.619Z,45.15
2023-02-08T08:27:12.590Z,45.82
2023-02-08T08:28:12.711Z,48.25
2023-02-08T08:29:12.569Z,48.40
2023-02-08T08:30:12.562Z,48.46
2023-02-08T08:31:12.691Z,47.98
2023-02-08T08:32:12.540Z,47.04
2023-02-08T08:33:12.542Z,44.28
2023-02-08T08:34:12.499Z,42.96
2023-02-08T08:35:12.511Z,41.97
2023-02-08T08:36:12.480Z,40.37
2023-02-08T08:37:12.464Z,39.31
2023-02-08T08:38:12.464Z,38.28
2023-02-08T08:39:12.443Z,38.15
2023-02-08T08:40:12.437Z,37.02
2023-02-08T08:41:12.415Z,37.78
2023-02-08T08:42:12.400Z,37.80
2023-02-08T08:43:12.394Z,36.83
2023-02-08T08:44:12.374Z,36.24
2023-02-08T08:45:12.385Z,36.10
2023-02-08T08:46:12.415Z,39.05
2023-02-08T08:47:12.336Z,38.48
2023-02-08T08:48:12.324Z,37.51
2023-02-08T08:49:12.338Z,36.34
2023-02-08T08:50:12.301Z,33.48
2023-02-08T08:51:12.298Z,34.56
2023-02-08T08:52:12.280Z,35.88
2023-02-08T08:53:12.267Z,36.58
2023-02-08T08:54:12.254Z,36.98
2023-02-08T08:55:12.236Z,35.72
2023-02-08T08:56:12.219Z,36.58
2023-02-08T08:57:12.206Z,37.07
2023-02-08T08:58:12.200Z,35.57
2023-02-08T08:59:12.183Z,35.38
2023-02-08T09:00:12.174Z,37.19
2023-02-08T09:01:12.173Z,36.19
2023-02-08T09:02:12.170Z,35.21
2023-02-08T09:03:12.183Z,36.73
2023-02-08T09:04:12.141Z,36.96
2023-02-08T09:05:12.131Z,37.19
2023-02-08T09:06:12.098Z,38.84
2023-02-08T09:07:12.073Z,38.18
2023-02-08T09:08:12.065Z,38.83
2023-02-08T09:09:12.049Z,42.26
2023-02-08T09:10:12.053Z,41.41
2023-02-08T09:11:12.027Z,41.06
2023-02-08T09:12:12.014Z,40.52
2023-02-08T09:13:12.020Z,39.79
2023-02-08T09:14:11.978Z,37.74
2023-02-08T09:15:11.962Z,37.63
2023-02-08T09:16:12.029Z,37.35
2023-02-08T09:17:11.953Z,38.01
2023-02-08T09:18:11.924Z,38.83
2023-02-08T09:19:11.923Z,40.66
2023-02-08T09:20:11.896Z,37.78
2023-02-08T09:21:11.926Z,38.18
2023-02-08T09:22:11.877Z,37.47
2023-02-08T09:23:11.860Z,38.09
2023-02-08T09:24:11.861Z,39.51
2023-02-08T09:25:11.851Z,39.40
2023-02-08T09:26:11.832Z,39.39
2023-02-08T09:27:11.812Z,41.88
2023-02-08T09:28:11.843Z,40.55
2023-02-08T09:29:11.797Z,42.31
2023-02-08T09:30:11.785Z,42.31
2023-02-08T09:31:11.922Z,43.08
2023-02-08T09:32:11.777Z,41.91
2023-02-08T09:33:11.753Z,40.50
2023-02-08T09:34:11.721Z,39.14
2023-02-08T09:35:11.718Z,39.42
2023-02-08T09:36:11.695Z,37.97
2023-02-08T09:37:11.719Z,36.85
2023-02-08T09:38:11.679Z,37.82
2023-02-08T09:39:11.676Z,40.00
2023-02-08T09:40:11.663Z,41.37
2023-02-08T09:41:11.641Z,41.11
2023-02-08T09:42:11.636Z,41.71
2023-02-08T09:43:11.609Z,43.41
2023-02-08T09:44:11.606Z,43.66
2023-02-08T09:45:11.588Z,44.61
2023-02-08T09:46:11.577Z,45.57
2023-02-08T09:47:11.569Z,44.78
2023-02-08T09:48:11.550Z,45.23
2023-02-08T09:49:11.533Z,46.92
2023-02-08T09:50:11.526Z,48.16
2023-02-08T09:51:11.580Z,50.03
2023-02-08T09:52:11.507Z,47.55
2023-02-08T09:53:11.516Z,47.66
2023-02-08T09:54:11.479Z,47.99
2023-02-08T09:55:11.461Z,47.80
2023-02-08T09:56:11.455Z,49.55
2023-02-08T09:57:11.432Z,49.22
2023-02-08T09:58:11.429Z,49.09
2023-02-08T09:59:11.411Z,49.53
2023-02-08T10:00:11.390Z,48.82
2023-02-08T10:01:11.416Z,49.76
2023-02-08T10:02:11.369Z,48.77
2023-02-08T10:03:11.367Z,49.71
2023-02-08T10:04:11.346Z,49.08
2023-02-08T10:05:11.344Z,49.48
2023-02-08T10:06:11.316Z,48.54
2023-02-08T10:07:11.315Z,50.10
2023-02-08T10:08:11.290Z,49.79
2023-02-08T10:09:11.305Z,50.10
2023-02-08T10:10:11.264Z,48.93
2023-02-08T10:11:11.259Z,47.97
2023-02-08T10:12:11.245Z,46.78
2023-02-08T10:13:11.241Z,48.27
2023-02-08T10:14:11.218Z,46.82
2023-02-08T10:15:11.198Z,46.66
2023-02-08T10:16:11.236Z,46.92
2023-02-08T10:17:11.183Z,48.16
2023-02-08T10:18:11.230Z,48.24
2023-02-08T10:19:11.146Z,46.88
2023-02-08T10:20:11.146Z,46.47
2023-02-08T10:21:11.129Z,46.15
2023-02-08T10:22:11.122Z,46.55
2023-02-08T10:23:11.105Z,46.03
2023-02-08T10:24:11.093Z,46.57
2023-02-08T10:25:11.107Z,47.34
2023-02-08T10:26:11.110Z,48.13
2023-02-08T10:27:11.058Z,47.36
2023-02-08T10:28:11.142Z,47.46
2023-02-08T10:29:11.031Z,47.36
2023-02-08T10:30:11.017Z,47.80
2023-02-08T10:31:11.169Z,46.70
2023-02-08T10:32:10.998Z,47.34
2023-02-08T10:33:10.994Z,48.41
2023-02-08T10:34:10.961Z,48.80
2023-02-08T10:35:10.944Z,48.11
2023-02-08T10:36:10.931Z,48.64
2023-02-08T10:37:10.925Z,48.87
2023-02-08T10:38:10.912Z,48.87
2023-02-08T10:39:10.889Z,48.66
2023-02-08T10:40:10.883Z,48.77
2023-02-08T10:41:10.941Z,49.48
2023-02-08T10:42:10.854Z,48.85
2023-02-08T10:43:10.849Z,50.39
2023-02-08T10:44:10.827Z,49.38
2023-02-08T10:45:23.626Z,48.07
2023-02-08T10:46:11.855Z,46.61
2023-02-08T10:47:10.807Z,45.67
2023-02-08T10:48:10.779Z,44.99
2023-02-08T10:49:10.788Z,46.41
2023-02-08T10:50:10.755Z,46.95
2023-02-08T10:51:10.748Z,48.47
2023-02-08T10:52:10.825Z,49.75
2023-02-08T10:53:10.717Z,50.56
2023-02-08T10:54:10.700Z,50.98
2023-02-08T10:55:10.689Z,50.62
2023-02-08T10:56:10.717Z,50.08
2023-02-08T10:57:10.725Z,48.80
2023-02-08T10:58:10.648Z,48.60
2023-02-08T10:59:10.647Z,48.03
2023-02-08T11:00:10.634Z,49.18
2023-02-08T11:01:10.645Z,49.51
2023-02-08T11:02:10.603Z,48.41
2023-02-08T11:03:10.595Z,48.61
2023-02-08T11:04:10.667Z,50.08
2023-02-08T11:05:10.557Z,50.39
2023-02-08T11:06:10.558Z,50.55
2023-02-08T11:07:10.537Z,49.77
2023-02-08T11:08:10.528Z,48.94
2023-02-08T11:09:10.511Z,48.53
2023-02-08T11:10:10.494Z,47.07
2023-02-08T11:11:10.498Z,46.57
2023-02-08T11:12:10.475Z,48.24
2023-02-08T11:13:10.496Z,48.84
2023-02-08T11:14:10.456Z,48.84
2023-02-08T11:15:10.428Z,48.74
2023-02-08T11:16:10.454Z,49.86
2023-02-08T11:17:10.402Z,48.40
2023-02-08T11:18:10.398Z,46.97
2023-02-08T11:19:10.392Z,47.30
2023-02-08T11:20:10.375Z,47.45
2023-02-08T11:21:10.356Z,48.70
2023-02-08T11:22:10.350Z,48.70
2023-02-08T11:23:10.335Z,50.99
2023-02-08T11:24:10.327Z,50.99
2023-02-08T11:25:10.309Z,49.11
2023-02-08T11:26:10.296Z,49.74
2023-02-08T11:27:10.285Z,50.68
2023-02-08T11:28:10.305Z,50.99
2023-02-08T11:29:10.280Z,49.95
2023-02-08T11:30:10.238Z,49.35
2023-02-08T11:31:10.899Z,50.49
2023-02-08T11:32:10.220Z,50.39
2023-02-08T11:33:10.196Z,50.60
2023-02-08T11:34:10.187Z,50.29
2023-02-08T11:35:10.180Z,53.00
2023-02-08T11:36:10.174Z,53.18
2023-02-08T11:37:10.149Z,51.82
2023-02-08T11:38:10.142Z,52.14
2023-02-08T11:39:10.148Z,50.26
2023-02-08T11:40:10.115Z,49.11
2023-02-08T11:41:10.112Z,50.57
2023-02-08T11:42:10.101Z,49.87
2023-02-08T11:43:10.090Z,50.91
2023-02-08T11:44:10.062Z,49.68
2023-02-08T11:45:10.129Z,50.62
2023-02-08T11:46:10.135Z,51.35
2023-02-08T11:47:10.030Z,50.73
2023-02-08T11:48:10.004Z,52.19
2023-02-08T11:49:10.003Z,51.98
2023-02-08T11:50:09.997Z,52.16
2023-02-08T11:51:09.974Z,52.06
2023-02-08T11:52:09.952Z,53.10
2023-02-08T11:53:09.962Z,52.56
2023-02-08T11:54:09.941Z,52.03
2023-02-08T11:55:09.923Z,51.20
2023-02-08T11:56:09.907Z,51.20
2023-02-08T11:57:09.901Z,51.12
2023-02-08T11:58:09.882Z,52.79
2023-02-08T11:59:09.871Z,52.26
2023-02-08T12:00:09.865Z,51.12
2023-02-08T12:01:09.872Z,51.54
2023-02-08T12:02:09.874Z,52.26
2023-02-08T12:03:09.844Z,52.06
2023-02-08T12:04:09.814Z,52.69
2023-02-08T12:05:09.810Z,52.08
2023-02-08T12:06:09.778Z,53.33
2023-02-08T12:07:09.764Z,52.94
2023-02-08T12:08:09.772Z,53.23
2023-02-08T12:09:09.740Z,52.92
2023-02-08T12:10:09.733Z,53.57
2023-02-08T12:11:09.716Z,54.27
2023-02-08T12:12:09.694Z,54.27
2023-02-08T12:13:09.690Z,52.61
2023-02-08T12:14:09.676Z,53.36
2023-02-08T12:15:09.663Z,53.86
2023-02-08T12:16:09.743Z,53.23
2023-02-08T12:17:09.665Z,53.65
2023-02-08T12:18:09.618Z,53.44
2023-02-08T12:19:09.610Z,55.00
2023-02-08T12:20:09.603Z,53.65
2023-02-08T12:21:09.584Z,54.59
2023-02-08T12:22:10.843Z,53.12
2023-02-08T12:23:09.564Z,53.75
2023-02-08T12:24:09.560Z,53.55
2023-02-08T12:25:09.795Z,53.86
2023-02-08T12:26:09.553Z,54.59
2023-02-08T12:27:09.523Z,53.86
2023-02-08T12:28:09.516Z,55.63
2023-02-08T12:29:09.475Z,53.44
2023-02-08T12:30:09.469Z,54.06
2023-02-08T12:31:09.538Z,53.55
2023-02-08T12:32:09.456Z,53.99
2023-02-08T12:33:09.482Z,53.47
2023-02-08T12:34:09.410Z,53.91
2023-02-08T12:35:09.404Z,54.32
2023-02-08T12:36:09.832Z,54.32
2023-02-08T12:37:09.398Z,54.32
2023-02-08T12:38:09.355Z,55.16
2023-02-08T12:39:21.357Z,55.34
2023-02-08T12:40:10.377Z,54.74
2023-02-08T12:41:09.327Z,55.26
2023-02-08T12:42:09.310Z,55.89
2023-02-08T12:43:09.302Z,55.58
2023-02-08T12:44:09.279Z,55.37
2023-02-08T12:45:09.275Z,55.40
2023-02-08T12:46:09.319Z,56.05
2023-02-08T12:47:09.246Z,57.07
2023-02-08T12:48:09.234Z,56.34
2023-02-08T12:49:09.244Z,55.91
2023-02-08T12:50:09.221Z,55.81
2023-02-08T12:51:09.195Z,55.29
2023-02-08T12:52:09.186Z,56.54